Flight Track Log - Related Links

Times and Time Zones

All times are in EDT time to prevent confusion due to time zone crossing. See the SWA4092 flight status page for this flight to view local times or setup timezone preferences in your user account.

Time Position Orientation Groundspeed Altitude Reporting Facility
EDT Latitude Longitude Course Direction KTS MPH feet Rate Location/Type
Sat 09:37:59 PM 32.7833 -96.8167 155° Southeast 198 228 5,100  Level Dallas / Fort Worth TRACON
Sat 09:38:59 PM 32.7500 -96.8833 239° Southwest 275 316 9,100 3,554 Climbing Dallas / Fort Worth TRACON
Sat 09:40:09 PM 32.7644 -96.9875 279° West 291 335 12,800 3,389 Climbing Fort Worth Center
Sat 09:41:10 PM 32.7800 -97.1003 279° West 347 399 16,500 3,590 Climbing Fort Worth Center
Sat 09:42:11 PM 32.7964 -97.2192 279° West 364 419 20,100 3,421 Climbing Fort Worth Center
Sat 09:43:11 PM 32.8125 -97.3394 279° West 373 429 23,400 3,074 Climbing Fort Worth Center
Sat 09:44:12 PM 32.8297 -97.4656 279° West 376 433 26,300 2,705 Climbing Fort Worth Center
Sat 09:45:13 PM 32.8472 -97.5936 279° West 387 445 28,900 3,098 Climbing Fort Worth Center
Sat 09:46:14 PM 32.8633 -97.7158 279° West 373 429 32,600 3,443 Climbing Fort Worth Center
Sat 09:47:15 PM 32.8647 -97.8236 271° West 325 374 35,900 2,803 Climbing Fort Worth Center
Sat 09:48:16 PM 32.8786 -97.9275 279° West 317 365 38,300 1,869 Climbing Fort Worth Center
Sat 09:49:17 PM 32.9125 -98.0264 292° West 322 371 39,700 836 Climbing Fort Worth Center
Sat 09:50:18 PM 32.9464 -98.1292 291° West 331 381 40,000 148 Climbing Fort Worth Center
Sat 09:51:19 PM 32.9800 -98.2347 291° West 338 389 40,000  Level Fort Worth Center
Sat 09:52:20 PM 33.0150 -98.3411 291° West 342 394 40,000  Level Fort Worth Center
Sat 09:53:21 PM 33.0522 -98.4569 291° West 347 399 40,000  Level Fort Worth Center
Sat 09:54:22 PM 33.0886 -98.5658 292° West 349 402 40,000  Level Fort Worth Center
Sat 09:55:23 PM 33.1225 -98.6733 291° West 349 402 40,000  Level Fort Worth Center
Sat 09:56:24 PM 33.1575 -98.7800 291° West 348 400 40,000  Level Fort Worth Center
Sat 09:57:25 PM 33.1922 -98.8889 291° West 351 404 40,000  Level Fort Worth Center
Sat 09:58:26 PM 33.2339 -99.0194 291° West 350 403 40,000  Level Fort Worth Center
Sat 09:59:27 PM 33.2683 -99.1289 291° West 351 404 40,000  Level Fort Worth Center
Sat 10:00:28 PM 33.3039 -99.2381 291° West 351 404 40,000  Level Fort Worth Center
Sat 10:01:29 PM 33.3386 -99.3486 291° West 353 406 40,000  Level Fort Worth Center
Sat 10:02:29 PM 33.3750 -99.4594 291° West 358 412 40,000  Level Fort Worth Center
Sat 10:03:30 PM 33.4094 -99.5711 290° West 360 414 40,000  Level Fort Worth Center
Sat 10:04:31 PM 33.4461 -99.6836 291° West 361 415 40,000  Level Fort Worth Center
Sat 10:05:32 PM 33.4803 -99.7986 290° West 368 423 40,000  Level Fort Worth Center
Sat 10:06:33 PM 33.5164 -99.9133 291° West 368 423 40,000  Level Fort Worth Center
Sat 10:07:34 PM 33.5525 -100.0269 291° West 367 422 40,000  Level Fort Worth Center
Sat 10:08:35 PM 33.5881 -100.1411 291° West 367 422 40,000  Level Fort Worth Center
Sat 10:09:36 PM 33.6297 -100.2800 290° West 367 422 40,000  Level Fort Worth Center
Sat 10:10:37 PM 33.6650 -100.3944 290° West 367 422 40,000  Level Fort Worth Center
Sat 10:11:38 PM 33.7008 -100.5125 290° West 370 426 40,000  Level Fort Worth Center
Sat 10:12:39 PM 33.7369 -100.6325 290° West 377 434 40,000  Level Fort Worth Center
Sat 10:13:40 PM 33.7731 -100.7539 290° West 380 437 40,000  Level Fort Worth Center
Sat 10:14:41 PM 33.8097 -100.8764 290° West 383 441 40,000  Level Fort Worth Center
Sat 10:15:42 PM 33.8464 -100.9983 290° West 387 445 40,000  Level Fort Worth Center
Sat 10:16:43 PM 33.8867 -101.1353 290° West 392 451 40,000  Level Fort Worth Center
Sat 10:17:44 PM 33.9247 -101.2608 290° West 396 456 40,000  Level Fort Worth Center
Sat 10:18:45 PM 33.9628 -101.3931 289° West 401 461 40,000  Level Fort Worth Center
Sat 10:19:46 PM 33.9989 -101.5175 289° West 400 460 40,000  Level Fort Worth Center
Sat 10:20:46 PM 34.0347 -101.6383 290° West 397 457 40,000  Level Fort Worth Center
Sat 10:21:47 PM 34.0717 -101.7653 289° West 397 457 40,000  Level Fort Worth Center
Sat 10:22:48 PM 34.1081 -101.8900 289° West 397 457 40,000  Level Fort Worth Center
Sat 10:23:49 PM 34.1442 -102.0131 290° West 393 452 40,000  Level Fort Worth Center
Sat 10:24:50 PM 34.1786 -102.1364 289° West 391 450 40,000  Level Fort Worth Center
Sat 10:25:51 PM 34.2142 -102.2586 289° West 387 445 40,000  Level Fort Worth Center
Sat 10:26:52 PM 34.2506 -102.3831 290° West 388 447 40,000  Level Fort Worth Center
Sat 10:27:52 PM 34.2850 -102.5083 288° West 389 448 40,000  Level Fort Worth Center
Sat 10:28:53 PM 34.3206 -102.6367 289° West 397 457 40,000  Level Fort Worth Center
Sat 10:29:54 PM 34.3581 -102.7658 289° West 402 463 40,000  Level Fort Worth Center
Sat 10:30:25 PM 34.3803 -102.8431 289° West 402 463 40,000  Level Albuquerque Center
Sat 10:31:26 PM 34.4161 -102.9708 289° West 402 463 40,000  Level Albuquerque Center
Sat 10:32:27 PM 34.4539 -103.1106 288° West 401 461 40,000  Level Albuquerque Center
Sat 10:33:27 PM 34.4900 -103.2383 289° West 399 459 40,000  Level Albuquerque Center
Sat 10:34:28 PM 34.5247 -103.3669 288° West 399 459 40,000  Level Albuquerque Center
Sat 10:35:29 PM 34.5594 -103.4956 288° West 398 458 40,000  Level Albuquerque Center
Sat 10:36:30 PM 34.5950 -103.6239 289° West 398 458 40,000  Level Albuquerque Center
Sat 10:37:32 PM 34.6264 -103.7528 287° West 398 458 40,000 -246 Level Albuquerque Center
Sat 10:38:32 PM 34.6575 -103.8803 287° West 395 455 39,500 -694 Descending Albuquerque Center
Sat 10:39:33 PM 34.6883 -104.0078 286° West 393 452 38,600 -934 Descending Albuquerque Center
Sat 10:40:34 PM 34.7197 -104.1364 287° West 393 452 37,600 -984 Descending Albuquerque Center
Sat 10:41:35 PM 34.7511 -104.2636 287° West 393 452 36,600 -787 Descending Albuquerque Center
Sat 10:42:36 PM 34.7825 -104.3942 286° West 393 452 36,000 -295 Descending Albuquerque Center
Sat 10:43:37 PM 34.8133 -104.5208 287° West 391 450 36,000  Level Albuquerque Center
Sat 10:44:38 PM 34.8397 -104.6461 284° West 381 438 36,000  Level Albuquerque Center
Sat 10:45:39 PM 34.8511 -104.7753 276° West 381 438 36,000  Level Albuquerque Center
Sat 10:46:40 PM 34.8633 -104.9061 277° West 381 438 36,000  Level Albuquerque Center
Sat 10:47:41 PM 34.8750 -105.0381 276° West 383 441 36,000 -1,230 Level Albuquerque Center
Sat 10:48:42 PM 34.8875 -105.1686 277° West 384 442 33,500 -2,902 Descending Albuquerque Center
Sat 10:49:43 PM 34.8989 -105.3019 276° West 388 447 30,100 -3,000 Descending Albuquerque Center
Sat 10:50:44 PM 34.9108 -105.4392 276° West 399 459 27,400 -2,213 Descending Albuquerque Center
Sat 10:51:45 PM 34.9211 -105.5706 275° West 376 433 25,600 -2,000 Descending Albuquerque Center
Sat 10:53:02 PM 34.9331 -105.7342 275° West 359 413 22,800 -2,213 Descending Albuquerque Center
Sat 10:53:47 PM 34.9411 -105.8164 277° West 364 419 21,100 -2,182 Descending Albuquerque Center
Sat 10:53:57 PM 34.9414 -105.8383 271° West 365 420 20,800 -2,197 Descending Albuquerque Center
Sat 10:54:58 PM 34.9514 -105.9653 276° West 348 400 18,500 -2,143 Descending Albuquerque Center
Sat 10:55:49 PM 34.9583 -106.0550 275° West 352 405 16,800 -2,036 Descending Albuquerque Center
Sat 10:56:50 PM 34.9578 -106.1683 270° West 337 388 14,700 -1,574 Descending Albuquerque Center
Sat 10:57:51 PM 34.9581 -106.2656 270° West 313 360 13,600 -1,328 Descending Albuquerque Center
Sat 10:58:52 PM 34.9592 -106.3619 271° West 288 331 12,000 -1,672 Descending Albuquerque Center
Sat 10:59:53 PM 34.9575 -106.4586 269° West 280 322 10,200 -1,279 Descending Albuquerque Center
Sat 11:00:54 PM 34.9542 -106.5461 267° West 269 310 9,400 -787 Descending Albuquerque Center
Sat 11:01:55 PM 34.9097 -106.6061 228° Southwest 240 276 8,600 -931 Descending Albuquerque Center
Sat 11:02:50 PM 34.8847 -106.6719 245° Southwest 208 239 7,600 -621 Descending Albuquerque Center
Sat 11:03:51 PM 34.9242 -106.7136 319° Northwest 186 214 7,400 -246 Descending Albuquerque Center
Sat 11:04:52 PM 34.9681 -106.6972 17° North 159 183 7,100 -661 Descending Albuquerque Center
Sat 11:05:40 PM 34.9892 -106.6711 45° Northeast 141 162 6,200 -985 Descending Albuquerque Center
Sat 11:05:59 PM 34.9986 -106.6589 47° Northeast 150 173 6,000 -675 Descending Albuquerque Center
Sat 11:07:00 PM 35.0292 -106.6217 45° Northeast 148 170 5,300 -689 Descending Albuquerque Center

Login

Don't have an account? Register now (free) for customized features, flight alerts, and more!